Time,TemperatureF,DewpointF,PressureIn,WindDirection,WindDirectionDegrees,WindSpeedMPH,WindSpeedGustMPH,Humidity,HourlyPrecipIn,Conditions,Clouds,dailyrainin,SoftwareType,DateUTC
2013-09-04 00:00:00,74.6,72.1,29.95,North,355,0.0,1.0,92,0.00,,---,0.00,VWS V14.01,2013-09-04 04:00:00,
2013-09-04 00:01:00,74.5,72.0,29.95,North,355,0.0,1.0,92,0.00,,---,0.00,VWS V14.01,2013-09-04 04:01:00,
2013-09-04 00:03:00,74.4,72.2,29.95,North,355,0.0,1.0,93,0.00,,---,0.00,VWS V14.01,2013-09-04 04:03:00,
2013-09-04 00:04:00,74.4,72.2,29.95,North,355,0.0,1.0,93,0.00,,---,0.00,VWS V14.01,2013-09-04 04:04:00,
2013-09-04 00:05:00,74.4,72.2,29.95,North,355,0.0,1.0,93,0.00,,---,0.00,VWS V14.01,2013-09-04 04:05:00,
2013-09-04 00:10:00,74.5,72.3,29.95,North,355,0.0,1.0,93,0.00,,---,0.00,VWS V14.01,2013-09-04 04:10:00,
2013-09-04 00:15:00,74.6,72.4,29.96,North,355,0.0,1.0,93,0.00,,---,0.00,VWS V14.01,2013-09-04 04:15:00,
2013-09-04 00:20:00,74.7,72.6,29.95,North,355,0.0,1.0,93,0.00,,---,0.00,VWS V14.01,2013-09-04 04:20:00,
2013-09-04 00:25:00,74.8,72.6,29.95,North,355,0.0,1.0,93,0.00,,---,0.00,VWS V14.01,2013-09-04 04:25:00,
2013-09-04 00:30:00,74.9,72.7,29.95,North,355,0.0,0.0,93,0.00,,---,0.00,VWS V14.01,2013-09-04 04:30:00,
2013-09-04 00:35:00,74.9,72.7,29.95,North,355,0.0,0.0,93,0.00,,---,0.00,VWS V14.01,2013-09-04 04:35:00,
2013-09-04 00:40:00,74.9,72.7,29.95,North,355,0.0,0.0,93,0.00,,---,0.00,VWS V14.01,2013-09-04 04:40:00,
2013-09-04 00:45:00,75.0,72.5,29.95,North,355,0.0,1.0,92,0.00,,---,0.00,VWS V14.01,2013-09-04 04:45:00,
2013-09-04 00:50:00,74.9,72.4,29.95,North,355,0.0,1.0,92,0.00,,---,0.00,VWS V14.01,2013-09-04 04:50:00,
2013-09-04 00:55:00,74.8,72.3,29.95,North,355,0.0,1.0,92,0.00,,---,0.00,VWS V14.01,2013-09-04 04:55:00,
2013-09-04 01:00:00,74.7,72.2,29.94,North,355,0.0,0.0,92,0.00,,---,0.00,VWS V14.01,2013-09-04 05:00:00,
2013-09-04 01:05:00,74.7,72.2,29.94,North,355,0.0,1.0,92,0.00,,---,0.00,VWS V14.01,2013-09-04 05:05:00,
2013-09-04 01:10:00,74.7,72.2,29.94,North,355,0.0,1.0,92,0.00,,---,0.00,VWS V14.01,2013-09-04 05:10:00,
2013-09-04 01:15:00,74.6,72.1,29.94,North,355,0.0,1.0,92,0.00,,---,0.00,VWS V14.01,2013-09-04 05:15:00,
2013-09-04 01:20:00,74.5,72.0,29.94,North,355,0.0,1.0,92,0.00,,---,0.00,VWS V14.01,2013-09-04 05:20:00,
2013-09-04 01:25:00,74.4,71.9,29.95,North,355,0.0,1.0,92,0.00,,---,0.00,VWS V14.01,2013-09-04 05:25:00,
2013-09-04 01:30:00,74.3,71.8,29.95,North,355,0.0,0.0,92,0.00,,---,0.00,VWS V14.01,2013-09-04 05:30:00,
2013-09-04 01:35:00,74.2,71.7,29.95,North,355,0.0,0.0,92,0.00,,---,0.00,VWS V14.01,2013-09-04 05:35:00,
2013-09-04 01:40:00,74.0,71.5,29.95,North,355,0.0,0.0,92,0.00,,---,0.00,VWS V14.01,2013-09-04 05:40:00,
2013-09-04 01:45:00,73.9,71.8,29.95,North,355,0.0,0.0,93,0.00,,---,0.00,VWS V14.01,2013-09-04 05:45:00,
2013-09-04 01:50:00,73.7,71.6,29.94,North,355,0.0,0.0,93,0.00,,---,0.00,VWS V14.01,2013-09-04 05:50:00,
2013-09-04 01:55:00,73.7,71.6,29.94,North,355,0.0,0.0,93,0.00,,---,0.00,VWS V14.01,2013-09-04 05:55:00,
2013-09-04 02:00:00,73.6,71.5,29.94,North,355,0.0,0.0,93,0.00,,---,0.00,VWS V14.01,2013-09-04 06:00:00,
2013-09-04 02:05:00,73.6,71.5,29.94,North,355,0.0,0.0,93,0.00,,---,0.00,VWS V14.01,2013-09-04 06:05:00,
2013-09-04 02:10:00,73.5,71.4,29.94,North,355,0.0,1.0,93,0.00,,---,0.00,VWS V14.01,2013-09-04 06:10:00,
2013-09-04 02:15:00,73.4,71.3,29.94,North,355,0.0,1.0,93,0.00,,---,0.00,VWS V14.01,2013-09-04 06:15:00,
2013-09-04 02:20:00,73.4,71.3,29.94,North,355,0.0,1.0,93,0.00,,---,0.00,VWS V14.01,2013-09-04 06:20:00,
2013-09-04 02:25:00,73.3,71.2,29.94,North,355,0.0,1.0,93,0.00,,---,0.00,VWS V14.01,2013-09-04 06:25:00,
2013-09-04 02:30:00,73.3,71.2,29.94,North,355,0.0,0.0,93,0.00,,---,0.00,VWS V14.01,2013-09-04 06:30:00,
2013-09-04 02:35:00,73.3,71.5,29.94,North,355,0.0,0.0,94,0.00,,---,0.00,VWS V14.01,2013-09-04 06:35:00,
2013-09-04 02:40:00,73.3,71.5,29.94,North,355,0.0,1.0,94,0.00,,---,0.00,VWS V14.01,2013-09-04 06:40:00,
2013-09-04 02:45:00,73.3,71.5,29.94,North,355,0.0,1.0,94,0.00,,---,0.00,VWS V14.01,2013-09-04 06:45:00,
2013-09-04 02:51:00,73.3,71.5,29.94,North,355,0.0,1.0,94,0.00,,---,0.00,VWS V14.01,2013-09-04 06:51:00,
2013-09-04 02:56:00,73.1,71.3,29.94,North,355,0.0,1.0,94,0.00,,---,0.00,VWS V14.01,2013-09-04 06:56:00,
2013-09-04 03:00:00,73.1,71.3,29.94,North,355,0.0,1.0,94,0.00,,---,0.00,VWS V14.01,2013-09-04 07:00:00,
2013-09-04 03:01:00,73.1,71.3,29.94,North,355,0.0,0.0,94,0.00,,---,0.00,VWS V14.01,2013-09-04 07:01:00,
2013-09-04 03:06:00,73.0,71.2,29.94,North,355,0.0,1.0,94,0.00,,---,0.00,VWS V14.01,2013-09-04 07:06:00,
2013-09-04 03:11:00,73.0,71.2,29.94,North,355,0.0,3.0,94,0.00,,---,0.00,VWS V14.01,2013-09-04 07:11:00,
2013-09-04 03:16:00,72.9,71.1,29.95,North,355,0.0,3.0,94,0.00,,---,0.00,VWS V14.01,2013-09-04 07:16:00,
2013-09-04 03:21:00,72.9,71.1,29.94,North,355,0.0,3.0,94,0.00,,---,0.00,VWS V14.01,2013-09-04 07:21:00,
2013-09-04 03:26:00,73.0,71.2,29.95,North,355,0.0,3.0,94,0.00,,---,0.00,VWS V14.01,2013-09-04 07:26:00,
2013-09-04 03:30:00,72.9,71.1,29.95,North,355,0.0,3.0,94,0.00,,---,0.00,VWS V14.01,2013-09-04 07:30:00,
2013-09-04 03:31:00,73.0,71.2,29.94,North,355,0.0,0.0,94,0.00,,---,0.00,VWS V14.01,2013-09-04 07:31:00,
2013-09-04 03:36:00,72.9,71.1,29.95,North,355,0.0,1.0,94,0.00,,---,0.00,VWS V14.01,2013-09-04 07:36:00,
2013-09-04 03:41:00,72.9,71.1,29.95,North,355,0.0,1.0,94,0.00,,---,0.00,VWS V14.01,2013-09-04 07:41:00,
2013-09-04 03:46:00,72.8,71.0,29.95,North,355,0.0,1.0,94,0.00,,---,0.00,VWS V14.01,2013-09-04 07:46:00,
2013-09-04 03:51:00,72.9,71.1,29.95,North,355,0.0,1.0,94,0.00,,---,0.00,VWS V14.01,2013-09-04 07:51:00,
2013-09-04 03:56:00,72.8,71.0,29.95,North,355,0.0,1.0,94,0.00,,---,0.00,VWS V14.01,2013-09-04 07:56:00,
2013-09-04 04:00:00,72.9,71.1,29.95,North,355,0.0,1.0,94,0.00,,---,0.00,VWS V14.01,2013-09-04 08:00:00,
2013-09-04 04:01:00,72.9,71.1,29.95,North,355,0.0,1.0,94,0.00,,---,0.00,VWS V14.01,2013-09-04 08:01:00,
2013-09-04 04:06:00,72.8,71.0,29.95,North,355,0.0,1.0,94,0.00,,---,0.00,VWS V14.01,2013-09-04 08:06:00,
2013-09-04 04:11:00,72.7,70.6,29.95,North,355,0.0,1.0,93,0.00,,---,0.00,VWS V14.01,2013-09-04 08:11:00,
2013-09-04 04:30:00,72.7,70.6,29.96,North,355,0.0,1.0,93,0.00,,---,0.00,VWS V14.01,2013-09-04 08:30:00,
2013-09-04 04:33:00,72.6,70.5,29.96,North,355,0.0,1.0,93,0.00,,---,0.00,VWS V14.01,2013-09-04 08:33:00,
2013-09-04 04:38:00,72.5,70.4,29.96,North,355,0.0,1.0,93,0.00,,---,0.00,VWS V14.01,2013-09-04 08:38:00,
2013-09-04 04:43:00,72.4,70.3,29.96,North,355,0.0,1.0,93,0.00,,---,0.00,VWS V14.01,2013-09-04 08:43:00,
2013-09-04 04:48:00,72.3,70.2,29.96,North,355,0.0,1.0,93,0.00,,---,0.00,VWS V14.01,2013-09-04 08:48:00,
2013-09-04 04:53:00,72.3,70.5,29.96,North,355,0.0,1.0,94,0.00,,---,0.00,VWS V14.01,2013-09-04 08:53:00,
2013-09-04 04:58:00,72.2,70.4,29.96,North,355,0.0,1.0,94,0.00,,---,0.00,VWS V14.01,2013-09-04 08:58:00,
2013-09-04 05:00:00,72.3,70.5,29.96,North,355,0.0,1.0,94,0.00,,---,0.00,VWS V14.01,2013-09-04 09:00:00,
2013-09-04 05:03:00,72.3,70.5,29.96,North,355,0.0,1.0,94,0.00,,---,0.00,VWS V14.01,2013-09-04 09:03:00,
2013-09-04 05:08:00,72.3,70.5,29.95,North,355,0.0,1.0,94,0.00,,---,0.00,VWS V14.01,2013-09-04 09:08:00,
2013-09-04 05:13:00,72.3,70.5,29.96,North,355,0.0,1.0,94,0.00,,---,0.00,VWS V14.01,2013-09-04 09:13:00,
2013-09-04 05:18:00,72.2,70.4,29.96,North,355,0.0,1.0,94,0.00,,---,0.00,VWS V14.01,2013-09-04 09:18:00,
2013-09-04 05:23:00,72.3,70.5,29.96,North,355,0.0,1.0,94,0.00,,---,0.00,VWS V14.01,2013-09-04 09:23:00,
2013-09-04 05:28:00,72.3,70.5,29.96,North,355,0.0,1.0,94,0.00,,---,0.00,VWS V14.01,2013-09-04 09:28:00,
2013-09-04 05:30:00,72.3,70.5,29.96,North,355,0.0,1.0,94,0.00,,---,0.00,VWS V14.01,2013-09-04 09:30:00,
2013-09-04 05:33:00,72.2,70.4,29.96,North,355,0.0,0.0,94,0.00,,---,0.00,VWS V14.01,2013-09-04 09:33:00,
2013-09-04 05:38:00,72.2,70.4,29.96,North,355,0.0,0.0,94,0.00,,---,0.00,VWS V14.01,2013-09-04 09:38:00,
2013-09-04 05:43:00,72.2,70.4,29.96,North,355,0.0,1.0,94,0.00,,---,0.00,VWS V14.01,2013-09-04 09:43:00,
2013-09-04 05:48:00,72.1,70.3,29.96,North,355,0.0,1.0,94,0.00,,---,0.00,VWS V14.01,2013-09-04 09:48:00,
2013-09-04 05:53:00,72.1,70.0,29.96,North,355,0.0,1.0,93,0.00,,---,0.00,VWS V14.01,2013-09-04 09:53:00,
2013-09-04 05:58:00,72.1,70.3,29.96,North,355,0.0,1.0,94,0.00,,---,0.00,VWS V14.01,2013-09-04 09:58:00,
2013-09-04 06:00:00,72.1,70.3,29.96,North,355,0.0,1.0,94,0.00,,---,0.00,VWS V14.01,2013-09-04 10:00:00,
2013-09-04 06:04:00,72.1,70.0,29.96,North,355,0.0,0.0,93,0.00,,---,0.00,VWS V14.01,2013-09-04 10:04:00,
2013-09-04 06:09:00,72.1,70.3,29.96,North,355,0.0,0.0,94,0.00,,---,0.00,VWS V14.01,2013-09-04 10:09:00,
2013-09-04 06:14:00,72.1,70.3,29.96,North,355,0.0,0.0,94,0.00,,---,0.00,VWS V14.01,2013-09-04 10:14:00,
2013-09-04 06:19:00,72.1,70.3,29.97,North,355,0.0,0.0,94,0.00,,---,0.00,VWS V14.01,2013-09-04 10:19:00,
2013-09-04 06:24:00,72.1,70.3,29.97,North,355,0.0,1.0,94,0.00,,---,0.00,VWS V14.01,2013-09-04 10:24:00,
2013-09-04 06:29:00,72.0,70.2,29.97,North,355,0.0,1.0,94,0.00,,---,0.00,VWS V14.01,2013-09-04 10:29:00,
2013-09-04 06:30:00,72.0,70.2,29.97,North,355,0.0,1.0,94,0.00,,---,0.00,VWS V14.01,2013-09-04 10:30:00,
2013-09-04 06:34:00,72.0,70.2,29.98,North,355,0.0,0.0,94,0.00,,---,0.00,VWS V14.01,2013-09-04 10:34:00,
2013-09-04 06:39:00,72.0,70.2,29.98,North,355,0.0,0.0,94,0.00,,---,0.00,VWS V14.01,2013-09-04 10:39:00,
2013-09-04 06:44:00,72.0,70.2,29.98,North,355,0.0,0.0,94,0.00,,---,0.00,VWS V14.01,2013-09-04 10:44:00,
2013-09-04 06:49:00,72.0,70.2,29.98,North,355,0.0,1.0,94,0.00,,---,0.00,VWS V14.01,2013-09-04 10:49:00,
2013-09-04 06:54:00,72.1,70.3,29.98,North,355,0.0,1.0,94,0.00,,---,0.00,VWS V14.01,2013-09-04 10:54:00,
2013-09-04 06:59:00,72.1,70.3,29.98,North,355,0.0,0.0,94,0.00,,---,0.00,VWS V14.01,2013-09-04 10:59:00,
2013-09-04 07:00:00,72.0,70.2,29.98,North,355,0.0,1.0,94,0.00,,---,0.00,VWS V14.01,2013-09-04 11:00:00,
2013-09-04 07:04:00,72.0,70.2,29.99,North,355,0.0,0.0,94,0.00,,---,0.00,VWS V14.01,2013-09-04 11:04:00,
2013-09-04 07:09:00,72.1,70.3,29.99,North,355,0.0,0.0,94,0.00,,---,0.00,VWS V14.01,2013-09-04 11:09:00,
2013-09-04 07:14:00,72.1,70.3,29.99,North,355,0.0,0.0,94,0.00,,---,0.00,VWS V14.01,2013-09-04 11:14:00,
2013-09-04 07:19:00,72.1,70.3,29.99,North,355,0.0,0.0,94,0.00,,---,0.00,VWS V14.01,2013-09-04 11:19:00,
2013-09-04 07:24:00,72.1,70.3,29.99,North,355,0.0,0.0,94,0.00,,---,0.00,VWS V14.01,2013-09-04 11:24:00,
2013-09-04 07:29:00,72.0,70.2,30.00,North,355,0.0,0.0,94,0.00,,---,0.00,VWS V14.01,2013-09-04 11:29:00,
2013-09-04 07:30:00,72.0,70.2,29.99,North,355,0.0,0.0,94,0.00,,---,0.00,VWS V14.01,2013-09-04 11:30:00,
2013-09-04 07:34:00,72.0,70.2,30.00,North,355,0.0,1.0,94,0.00,,---,0.00,VWS V14.01,2013-09-04 11:34:00,
2013-09-04 07:39:00,72.1,70.3,30.00,North,355,0.0,1.0,94,0.00,,---,0.00,VWS V14.01,2013-09-04 11:39:00,
2013-09-04 07:44:00,72.1,70.3,30.00,North,355,0.0,1.0,94,0.00,,---,0.00,VWS V14.01,2013-09-04 11:44:00,
2013-09-04 07:49:00,72.2,70.4,30.01,North,355,0.0,1.0,94,0.00,,---,0.00,VWS V14.01,2013-09-04 11:49:00,
2013-09-04 07:54:00,72.3,70.5,30.00,North,355,0.0,1.0,94,0.00,,---,0.00,VWS V14.01,2013-09-04 11:54:00,
2013-09-04 07:59:00,72.5,70.7,30.01,North,355,0.0,0.0,94,0.00,,---,0.00,VWS V14.01,2013-09-04 11:59:00,
2013-09-04 08:00:00,72.4,70.6,30.01,North,355,0.0,1.0,94,0.00,,---,0.00,VWS V14.01,2013-09-04 12:00:00,
2013-09-04 08:04:00,72.7,70.9,30.01,North,355,0.0,0.0,94,0.00,,---,0.00,VWS V14.01,2013-09-04 12:04:00,
2013-09-04 08:09:00,72.9,71.1,30.01,North,355,0.0,1.0,94,0.00,,---,0.00,VWS V14.01,2013-09-04 12:09:00,
2013-09-04 08:14:00,73.0,71.2,30.01,North,355,0.0,1.0,94,0.00,,---,0.00,VWS V14.01,2013-09-04 12:14:00,
2013-09-04 08:19:00,73.3,71.5,30.01,North,355,0.0,1.0,94,0.00,,---,0.00,VWS V14.01,2013-09-04 12:19:00,
2013-09-04 08:24:00,73.5,71.7,30.01,North,355,0.0,1.0,94,0.00,,---,0.00,VWS V14.01,2013-09-04 12:24:00,
2013-09-04 08:29:00,73.7,71.9,30.01,North,355,0.0,0.0,94,0.00,,---,0.00,VWS V14.01,2013-09-04 12:29:00,
2013-09-04 08:30:00,73.6,71.8,30.01,North,355,0.0,1.0,94,0.00,,---,0.00,VWS V14.01,2013-09-04 12:30:00,
2013-09-04 08:34:00,74.0,71.8,30.01,North,355,0.0,0.0,93,0.00,,---,0.00,VWS V14.01,2013-09-04 12:34:00,
2013-09-04 08:39:00,74.3,72.2,30.01,North,355,0.0,0.0,93,0.00,,---,0.00,VWS V14.01,2013-09-04 12:39:00,
2013-09-04 08:44:00,74.8,72.6,30.02,North,355,0.0,0.0,93,0.00,,---,0.00,VWS V14.01,2013-09-04 12:44:00,
2013-09-04 08:49:00,75.2,72.7,30.02,North,355,0.0,1.0,92,0.00,,---,0.00,VWS V14.01,2013-09-04 12:49:00,
2013-09-04 08:54:00,75.6,72.8,30.02,North,355,0.0,1.0,91,0.00,,---,0.00,VWS V14.01,2013-09-04 12:54:00,
2013-09-04 08:59:00,76.0,73.2,30.02,North,355,0.0,0.0,91,0.00,,---,0.00,VWS V14.01,2013-09-04 12:59:00,
2013-09-04 09:00:00,76.0,73.2,30.02,North,355,0.0,1.0,91,0.00,,---,0.00,VWS V14.01,2013-09-04 13:00:00,
2013-09-04 09:04:00,76.5,73.3,30.02,North,355,0.0,0.0,90,0.00,,---,0.00,VWS V14.01,2013-09-04 13:04:00,
2013-09-04 09:09:00,76.8,73.3,30.02,North,355,0.0,1.0,89,0.00,,---,0.00,VWS V14.01,2013-09-04 13:09:00,
2013-09-04 09:14:00,77.3,73.8,30.02,North,355,0.0,1.0,89,0.00,,---,0.00,VWS V14.01,2013-09-04 13:14:00,
2013-09-04 09:19:00,77.4,73.6,30.02,North,355,0.0,4.0,88,0.00,,---,0.00,VWS V14.01,2013-09-04 13:19:00,
2013-09-04 09:24:00,77.4,73.6,30.03,North,355,0.0,4.0,88,0.00,,---,0.00,VWS V14.01,2013-09-04 13:24:00,
2013-09-04 09:29:00,78.0,74.2,30.03,North,355,0.0,0.0,88,0.00,,---,0.00,VWS V14.01,2013-09-04 13:29:00,
2013-09-04 09:30:00,77.8,74.3,30.03,North,355,0.0,4.0,89,0.00,,---,0.00,VWS V14.01,2013-09-04 13:30:00,
2013-09-04 09:34:00,78.9,74.4,30.03,North,355,0.0,1.0,86,0.00,,---,0.00,VWS V14.01,2013-09-04 13:34:00,
2013-09-04 09:39:00,78.9,74.4,30.03,North,355,0.0,4.0,86,0.00,,---,0.00,VWS V14.01,2013-09-04 13:39:00,
2013-09-04 09:44:00,78.9,74.4,30.03,North,355,0.0,4.0,86,0.00,,---,0.00,VWS V14.01,2013-09-04 13:44:00,
2013-09-04 09:49:00,79.5,74.9,30.03,North,355,0.0,4.0,86,0.00,,---,0.00,VWS V14.01,2013-09-04 13:49:00,
2013-09-04 09:54:00,80.0,75.1,30.04,North,355,0.0,4.0,85,0.00,,---,0.00,VWS V14.01,2013-09-04 13:54:00,
2013-09-04 09:59:00,80.4,75.1,30.04,North,355,0.0,1.0,84,0.00,,---,0.00,VWS V14.01,2013-09-04 13:59:00,
2013-09-04 10:00:00,80.3,75.0,30.04,North,355,0.0,4.0,84,0.00,,---,0.00,VWS V14.01,2013-09-04 14:00:00,
2013-09-04 10:04:00,80.4,75.1,30.04,North,355,0.0,1.0,84,0.00,,---,0.00,VWS V14.01,2013-09-04 14:04:00,
2013-09-04 10:09:00,81.1,75.8,30.04,North,355,0.0,1.0,84,0.00,,---,0.00,VWS V14.01,2013-09-04 14:09:00,
2013-09-04 10:14:00,81.8,75.8,30.04,North,355,0.0,1.0,82,0.00,,---,0.00,VWS V14.01,2013-09-04 14:14:00,
2013-09-04 10:20:00,81.9,75.9,30.04,North,355,0.0,1.0,82,0.00,,---,0.00,VWS V14.01,2013-09-04 14:20:00,
2013-09-04 10:25:00,82.0,75.6,30.04,North,355,0.0,1.0,81,0.00,,---,0.00,VWS V14.01,2013-09-04 14:25:00,
2013-09-04 10:30:00,82.8,75.6,30.04,North,355,0.0,0.0,79,0.00,,---,0.00,VWS V14.01,2013-09-04 14:30:00,
2013-09-04 10:35:00,83.1,75.9,30.04,North,355,0.0,1.0,79,0.00,,---,0.00,VWS V14.01,2013-09-04 14:35:00,
2013-09-04 10:40:00,82.9,75.7,30.04,North,355,0.0,1.0,79,0.00,,---,0.00,VWS V14.01,2013-09-04 14:40:00,
2013-09-04 10:45:00,83.2,76.4,30.04,North,355,0.0,1.0,80,0.00,,---,0.00,VWS V14.01,2013-09-04 14:45:00,
2013-09-04 10:50:00,83.2,76.0,30.04,North,355,0.0,2.0,79,0.00,,---,0.00,VWS V14.01,2013-09-04 14:50:00,
2013-09-04 10:55:00,83.2,76.0,30.04,North,355,0.0,2.0,79,0.00,,---,0.00,VWS V14.01,2013-09-04 14:55:00,
2013-09-04 11:00:00,83.6,76.4,30.04,North,355,0.0,1.0,79,0.00,,---,0.00,VWS V14.01,2013-09-04 15:00:00,
2013-09-04 11:05:00,84.5,76.9,30.04,North,355,1.0,2.0,78,0.00,,---,0.00,VWS V14.01,2013-09-04 15:05:00,
2013-09-04 11:10:00,84.6,76.2,30.04,SW,228,0.0,5.0,76,0.00,,---,0.00,VWS V14.01,2013-09-04 15:10:00,
2013-09-04 11:15:00,85.0,77.0,30.04,SSW,212,0.0,5.0,77,0.00,,---,0.00,VWS V14.01,2013-09-04 15:15:00,
2013-09-04 11:20:00,85.5,77.1,30.04,WSW,242,0.0,5.0,76,0.00,,---,0.00,VWS V14.01,2013-09-04 15:20:00,
2013-09-04 11:25:00,85.8,76.6,30.04,SSW,207,0.0,5.0,74,0.00,,---,0.00,VWS V14.01,2013-09-04 15:25:00,
2013-09-04 11:30:00,86.4,75.9,30.04,West,264,0.0,4.0,71,0.00,,---,0.00,VWS V14.01,2013-09-04 15:30:00,
2013-09-04 11:35:00,86.9,76.8,30.04,WNW,288,0.0,4.0,72,0.00,,---,0.00,VWS V14.01,2013-09-04 15:35:00,
2013-09-04 11:40:00,86.6,76.1,30.04,SSE,159,0.0,5.0,71,0.00,,---,0.00,VWS V14.01,2013-09-04 15:40:00,
2013-09-04 11:45:00,86.6,76.9,30.04,SSE,163,0.0,5.0,73,0.00,,---,0.00,VWS V14.01,2013-09-04 15:45:00,
2013-09-04 11:50:00,87.4,76.8,30.04,West,276,1.0,5.0,71,0.00,,---,0.00,VWS V14.01,2013-09-04 15:50:00,
2013-09-04 11:55:00,87.6,76.2,30.04,WNW,286,0.0,5.0,69,0.00,,---,0.00,VWS V14.01,2013-09-04 15:55:00,
2013-09-04 12:00:00,87.9,76.9,30.04,SSW,195,0.0,1.0,70,0.00,,---,0.00,VWS V14.01,2013-09-04 16:00:00,
2013-09-04 12:05:00,87.7,76.3,30.04,SSW,208,0.0,2.0,69,0.00,,---,0.00,VWS V14.01,2013-09-04 16:05:00,
2013-09-04 12:10:00,87.9,76.0,30.04,SW,215,0.0,2.0,68,0.00,,---,0.00,VWS V14.01,2013-09-04 16:10:00,
2013-09-04 12:15:00,88.4,77.4,30.04,SSW,205,0.0,4.0,70,0.00,,---,0.00,VWS V14.01,2013-09-04 16:15:00,
2013-09-04 12:20:00,88.7,75.9,30.04,SSW,205,0.0,4.0,66,0.00,,---,0.00,VWS V14.01,2013-09-04 16:20:00,
2013-09-04 12:25:00,88.8,76.4,30.04,SSW,202,0.0,4.0,67,0.00,,---,0.00,VWS V14.01,2013-09-04 16:25:00,
2013-09-04 12:30:00,88.6,75.8,30.04,WNW,287,0.0,5.0,66,0.00,,---,0.00,VWS V14.01,2013-09-04 16:30:00,
2013-09-04 12:35:00,88.9,76.5,30.04,WSW,254,0.0,5.0,67,0.00,,---,0.00,VWS V14.01,2013-09-04 16:35:00,
2013-09-04 12:40:00,88.9,76.1,30.04,West,267,0.0,5.0,66,0.00,,---,0.00,VWS V14.01,2013-09-04 16:40:00,
2013-09-04 12:45:00,88.9,76.1,30.04,NW,326,0.0,5.0,66,0.00,,---,0.00,VWS V14.01,2013-09-04 16:45:00,
2013-09-04 12:50:00,89.1,75.3,30.04,West,269,3.0,5.0,64,0.00,,---,0.00,VWS V14.01,2013-09-04 16:50:00,
2013-09-04 12:55:00,89.2,75.0,30.04,SW,219,0.0,5.0,63,0.00,,---,0.00,VWS V14.01,2013-09-04 16:55:00,
2013-09-04 13:00:00,89.1,74.9,30.04,SSE,149,0.0,1.0,63,0.00,,---,0.00,VWS V14.01,2013-09-04 17:00:00,
2013-09-04 13:05:00,89.9,75.1,30.04,NW,325,0.0,6.0,62,0.00,,---,0.00,VWS V14.01,2013-09-04 17:05:00,
2013-09-04 13:10:00,90.4,75.1,30.04,NNW,331,3.0,6.0,61,0.00,,---,0.00,VWS V14.01,2013-09-04 17:10:00,
2013-09-04 13:15:00,91.0,74.2,30.04,NE,35,0.0,6.0,58,0.00,,---,0.00,VWS V14.01,2013-09-04 17:15:00,
2013-09-04 13:20:00,91.4,75.1,30.04,NE,49,0.0,6.0,59,0.00,,---,0.00,VWS V14.01,2013-09-04 17:20:00,
2013-09-04 13:25:00,90.9,75.6,30.03,NE,42,0.0,6.0,61,0.00,,---,0.00,VWS V14.01,2013-09-04 17:25:00,
2013-09-04 13:30:00,90.8,75.5,30.03,WSW,242,4.0,5.0,61,0.00,,---,0.00,VWS V14.01,2013-09-04 17:30:00,
2013-09-04 13:36:00,90.4,75.1,30.04,North,5,0.0,5.0,61,0.00,,---,0.00,VWS V14.01,2013-09-04 17:36:00,
2013-09-04 13:41:00,90.1,74.3,30.03,North,5,0.0,6.0,60,0.00,,---,0.00,VWS V14.01,2013-09-04 17:41:00,
2013-09-04 13:46:00,89.7,74.5,30.03,ESE,102,0.0,6.0,61,0.00,,---,0.00,VWS V14.01,2013-09-04 17:46:00,
2013-09-04 13:51:00,89.4,74.7,30.03,SE,137,0.0,6.0,62,0.00,,---,0.00,VWS V14.01,2013-09-04 17:51:00,
2013-09-04 13:56:00,89.9,75.1,30.03,NE,47,1.0,6.0,62,0.00,,---,0.00,VWS V14.01,2013-09-04 17:56:00,
2013-09-04 14:00:00,90.6,75.3,30.03,NE,38,0.0,6.0,61,0.00,,---,0.00,VWS V14.01,2013-09-04 18:00:00,
2013-09-04 14:01:00,91.0,75.2,30.03,North,5,0.0,3.0,60,0.00,,---,0.00,VWS V14.01,2013-09-04 18:01:00,
2013-09-04 14:06:00,91.7,75.3,30.03,WSW,245,3.0,3.0,59,0.00,,---,0.00,VWS V14.01,2013-09-04 18:06:00,
2013-09-04 14:11:00,91.6,74.2,30.03,West,267,0.0,4.0,57,0.00,,---,0.00,VWS V14.01,2013-09-04 18:11:00,
2013-09-04 14:16:00,91.7,74.3,30.02,North,5,0.0,4.0,57,0.00,,---,0.00,VWS V14.01,2013-09-04 18:16:00,
2013-09-04 14:21:00,92.1,74.7,30.02,North,9,0.0,4.0,57,0.00,,---,0.00,VWS V14.01,2013-09-04 18:21:00,
2013-09-04 14:26:00,91.3,75.0,30.02,SSW,203,0.0,8.0,59,0.00,,---,0.00,VWS V14.01,2013-09-04 18:26:00,
2013-09-04 14:30:00,90.7,74.4,30.02,SSW,203,0.0,8.0,59,0.00,,---,0.00,VWS V14.01,2013-09-04 18:30:00,
2013-09-04 14:31:00,90.4,75.1,30.02,SSW,203,0.0,0.0,61,0.00,,---,0.00,VWS V14.01,2013-09-04 18:31:00,
2013-09-04 14:36:00,89.9,74.7,30.02,SSW,204,0.0,1.0,61,0.00,,---,0.00,VWS V14.01,2013-09-04 18:36:00,
2013-09-04 14:41:00,89.5,74.8,30.02,SSW,204,0.0,1.0,62,0.00,,---,0.00,VWS V14.01,2013-09-04 18:41:00,
2013-09-04 14:46:00,89.0,74.3,30.01,South,186,0.0,1.0,62,0.00,,---,0.00,VWS V14.01,2013-09-04 18:46:00,
2013-09-04 14:51:00,88.8,74.6,30.01,SSE,164,0.0,1.0,63,0.00,,---,0.00,VWS V14.01,2013-09-04 18:51:00,
2013-09-04 14:56:00,88.6,74.9,30.01,SSE,160,0.0,4.0,64,0.00,,---,0.00,VWS V14.01,2013-09-04 18:56:00,
2013-09-04 15:00:00,88.6,75.3,30.01,SSE,148,0.0,4.0,65,0.00,,---,0.00,VWS V14.01,2013-09-04 19:00:00,
2013-09-04 15:01:00,88.6,75.8,30.01,SE,146,0.0,1.0,66,0.00,,---,0.00,VWS V14.01,2013-09-04 19:01:00,
2013-09-04 15:06:00,88.4,75.6,30.01,SSE,148,0.0,1.0,66,0.00,,---,0.00,VWS V14.01,2013-09-04 19:06:00,
2013-09-04 15:11:00,88.6,74.9,30.01,SE,138,0.0,5.0,64,0.00,,---,0.00,VWS V14.01,2013-09-04 19:11:00,
2013-09-04 15:16:00,88.7,75.0,30.01,SE,138,0.0,5.0,64,0.00,,---,0.00,VWS V14.01,2013-09-04 19:16:00,
2013-09-04 15:21:00,88.8,75.1,30.01,SE,138,1.0,5.0,64,0.00,,---,0.00,VWS V14.01,2013-09-04 19:21:00,
2013-09-04 15:26:00,89.0,74.8,30.01,SE,138,0.0,5.0,63,0.00,,---,0.00,VWS V14.01,2013-09-04 19:26:00,
2013-09-04 15:30:00,89.3,74.1,30.01,SE,138,0.0,5.0,61,0.00,,---,0.00,VWS V14.01,2013-09-04 19:30:00,
2013-09-04 15:31:00,89.5,73.3,30.00,SE,138,0.0,1.0,59,0.00,,---,0.00,VWS V14.01,2013-09-04 19:31:00,
2013-09-04 15:36:00,90.0,74.3,30.01,SE,138,0.0,1.0,60,0.00,,---,0.00,VWS V14.01,2013-09-04 19:36:00,
2013-09-04 15:41:00,90.8,74.5,30.00,North,360,0.0,1.0,59,0.00,,---,0.00,VWS V14.01,2013-09-04 19:41:00,
2013-09-04 15:46:00,91.6,74.7,30.00,NW,321,0.0,1.0,58,0.00,,---,0.00,VWS V14.01,2013-09-04 19:46:00,
2013-09-04 15:51:00,92.6,75.2,30.00,NNE,30,0.0,1.0,57,0.00,,---,0.00,VWS V14.01,2013-09-04 19:51:00,
2013-09-04 15:56:00,92.9,75.9,30.00,SE,136,0.0,1.0,58,0.00,,---,0.00,VWS V14.01,2013-09-04 19:56:00,
2013-09-04 16:00:00,92.9,76.5,30.00,ENE,67,0.0,4.0,59,0.00,,---,0.00,VWS V14.01,2013-09-04 20:00:00,
2013-09-04 16:01:00,92.6,76.7,30.00,West,264,6.0,7.0,60,0.00,,---,0.00,VWS V14.01,2013-09-04 20:01:00,
2013-09-04 16:06:00,91.5,76.2,30.00,SSE,163,0.0,7.0,61,0.00,,---,0.00,VWS V14.01,2013-09-04 20:06:00,
2013-09-04 16:11:00,90.3,76.5,30.00,South,189,0.0,7.0,64,0.00,,---,0.00,VWS V14.01,2013-09-04 20:11:00,
2013-09-04 16:16:00,89.7,76.4,30.00,South,190,0.0,7.0,65,0.00,,---,0.00,VWS V14.01,2013-09-04 20:16:00,
2013-09-04 16:21:00,89.1,76.7,30.00,South,190,0.0,7.0,67,0.00,,---,0.00,VWS V14.01,2013-09-04 20:21:00,
2013-09-04 16:26:00,88.9,77.0,30.00,South,190,0.0,7.0,68,0.00,,---,0.00,VWS V14.01,2013-09-04 20:26:00,
2013-09-04 16:30:00,88.9,76.1,30.00,SW,231,5.0,7.0,66,0.00,,---,0.00,VWS V14.01,2013-09-04 20:30:00,
2013-09-04 16:31:00,89.0,77.1,30.00,WSW,249,0.0,5.0,68,0.00,,---,0.00,VWS V14.01,2013-09-04 20:31:00,
2013-09-04 16:37:00,89.3,76.0,30.00,West,269,0.0,6.0,65,0.00,,---,0.00,VWS V14.01,2013-09-04 20:37:00,
2013-09-04 16:42:00,89.5,75.7,30.00,West,262,0.0,6.0,64,0.00,,---,0.00,VWS V14.01,2013-09-04 20:42:00,
2013-09-04 16:47:00,89.5,75.7,30.00,West,266,3.0,6.0,64,0.00,,---,0.00,VWS V14.01,2013-09-04 20:47:00,
2013-09-04 16:52:00,89.9,75.6,30.00,WSW,258,1.0,6.0,63,0.00,,---,0.00,VWS V14.01,2013-09-04 20:52:00,
2013-09-04 16:57:00,89.9,77.5,30.00,WNW,288,0.0,8.0,67,0.00,,---,0.00,VWS V14.01,2013-09-04 20:57:00,
2013-09-04 17:00:00,89.8,77.8,30.00,SW,234,6.0,8.0,68,0.00,,---,0.00,VWS V14.01,2013-09-04 21:00:00,
2013-09-04 17:02:00,89.4,77.0,29.99,WSW,248,3.0,7.0,67,0.00,,---,0.00,VWS V14.01,2013-09-04 21:02:00,
2013-09-04 17:07:00,88.4,77.4,29.99,WSW,252,0.0,8.0,70,0.00,,---,0.00,VWS V14.01,2013-09-04 21:07:00,
2013-09-04 17:12:00,87.8,77.2,29.99,West,281,1.0,8.0,71,0.00,,---,0.00,VWS V14.01,2013-09-04 21:12:00,
2013-09-04 17:17:00,87.2,76.7,29.99,WSW,242,0.0,8.0,71,0.00,,---,0.00,VWS V14.01,2013-09-04 21:17:00,
2013-09-04 17:22:00,86.7,77.0,29.99,West,277,0.0,8.0,73,0.00,,---,0.00,VWS V14.01,2013-09-04 21:22:00,
2013-09-04 17:27:00,86.4,77.1,29.99,West,264,0.0,8.0,74,0.00,,---,0.00,VWS V14.01,2013-09-04 21:27:00,
2013-09-04 17:30:00,86.2,77.3,29.99,West,264,0.0,8.0,75,0.00,,---,0.00,VWS V14.01,2013-09-04 21:30:00,
2013-09-04 17:32:00,85.9,77.1,29.99,WSW,256,0.0,5.0,75,0.00,,---,0.00,VWS V14.01,2013-09-04 21:32:00,
2013-09-04 17:37:00,85.7,76.9,29.99,WSW,256,0.0,5.0,75,0.00,,---,0.00,VWS V14.01,2013-09-04 21:37:00,
2013-09-04 17:42:00,85.6,76.8,29.99,WNW,287,0.0,5.0,75,0.00,,---,0.00,VWS V14.01,2013-09-04 21:42:00,
2013-09-04 17:47:00,85.5,76.7,29.99,WSW,240,0.0,5.0,75,0.00,,---,0.00,VWS V14.01,2013-09-04 21:47:00,
2013-09-04 17:52:00,85.4,76.6,29.99,WSW,258,1.0,5.0,75,0.00,,---,0.00,VWS V14.01,2013-09-04 21:52:00,
2013-09-04 17:57:00,85.2,76.4,29.99,WSW,254,0.0,5.0,75,0.00,,---,0.00,VWS V14.01,2013-09-04 21:57:00,
2013-09-04 18:00:00,85.1,76.3,29.99,WSW,250,0.0,5.0,75,0.00,,---,0.00,VWS V14.01,2013-09-04 22:00:00,
2013-09-04 18:02:00,85.0,76.6,29.99,WSW,249,0.0,3.0,76,0.00,,---,0.00,VWS V14.01,2013-09-04 22:02:00,
2013-09-04 18:07:00,84.8,76.4,30.00,WSW,252,1.0,5.0,76,0.00,,---,0.00,VWS V14.01,2013-09-04 22:07:00,
2013-09-04 18:12:00,84.5,76.5,30.00,WSW,240,0.0,5.0,77,0.00,,---,0.00,VWS V14.01,2013-09-04 22:12:00,
2013-09-04 18:17:00,84.2,76.6,30.00,WSW,242,0.0,5.0,78,0.00,,---,0.00,VWS V14.01,2013-09-04 22:17:00,
2013-09-04 18:22:00,84.0,76.4,30.00,WSW,242,0.0,5.0,78,0.00,,---,0.00,VWS V14.01,2013-09-04 22:22:00,
2013-09-04 18:27:00,83.8,76.6,30.00,WSW,242,0.0,5.0,79,0.00,,---,0.00,VWS V14.01,2013-09-04 22:27:00,
2013-09-04 18:30:00,83.8,76.6,30.00,WSW,242,0.0,5.0,79,0.00,,---,0.00,VWS V14.01,2013-09-04 22:30:00,
2013-09-04 18:32:00,83.7,76.9,30.00,WSW,242,0.0,1.0,80,0.00,,---,0.00,VWS V14.01,2013-09-04 22:32:00,
2013-09-04 18:37:00,83.7,76.9,30.01,WSW,242,0.0,1.0,80,0.00,,---,0.00,VWS V14.01,2013-09-04 22:37:00,
2013-09-04 18:42:00,83.7,77.2,30.01,WSW,243,0.0,1.0,81,0.03,,---,0.03,VWS V14.01,2013-09-04 22:42:00,
2013-09-04 18:47:00,83.6,78.3,30.00,WSW,243,0.0,1.0,84,0.05,,---,0.05,VWS V14.01,2013-09-04 22:47:00,
2013-09-04 18:52:00,83.2,77.9,30.01,WSW,243,0.0,1.0,84,0.05,,---,0.05,VWS V14.01,2013-09-04 22:52:00,
2013-09-04 18:57:00,83.0,78.4,30.01,WSW,243,0.0,1.0,86,0.05,,---,0.05,VWS V14.01,2013-09-04 22:57:00,
2013-09-04 19:00:00,82.9,77.9,30.01,WSW,243,0.0,4.0,85,0.05,,---,0.05,VWS V14.01,2013-09-04 23:00:00,
2013-09-04 19:02:00,82.6,78.0,30.01,WSW,243,0.0,1.0,86,0.05,,---,0.05,VWS V14.01,2013-09-04 23:02:00,
2013-09-04 19:07:00,82.3,78.1,30.01,WSW,243,0.0,1.0,87,0.05,,---,0.05,VWS V14.01,2013-09-04 23:07:00,
2013-09-04 19:12:00,81.9,77.7,30.01,WSW,243,0.0,1.0,87,0.05,,---,0.05,VWS V14.01,2013-09-04 23:12:00,
2013-09-04 19:17:00,81.6,77.4,30.02,WSW,243,0.0,1.0,87,0.05,,---,0.05,VWS V14.01,2013-09-04 23:17:00,
2013-09-04 19:22:00,81.3,77.1,30.02,WSW,243,0.0,1.0,87,0.05,,---,0.05,VWS V14.01,2013-09-04 23:22:00,
2013-09-04 19:27:00,81.0,77.1,30.02,WSW,243,0.0,1.0,88,0.05,,---,0.05,VWS V14.01,2013-09-04 23:27:00,
2013-09-04 19:30:00,80.8,76.9,30.02,WSW,243,0.0,1.0,88,0.05,,---,0.05,VWS V14.01,2013-09-04 23:30:00,
2013-09-04 19:32:00,80.5,76.6,30.02,WSW,243,0.0,0.0,88,0.05,,---,0.05,VWS V14.01,2013-09-04 23:32:00,
2013-09-04 19:37:00,80.2,76.7,30.01,WSW,243,0.0,0.0,89,0.05,,---,0.05,VWS V14.01,2013-09-04 23:37:00,
2013-09-04 19:42:00,80.0,76.5,30.01,WSW,243,0.0,1.0,89,0.05,,---,0.05,VWS V14.01,2013-09-04 23:42:00,
2013-09-04 19:47:00,79.8,76.6,30.01,WSW,243,0.0,1.0,90,0.05,,---,0.05,VWS V14.01,2013-09-04 23:47:00,
2013-09-04 19:52:00,79.6,76.4,30.01,WSW,243,0.0,1.0,90,0.05,,---,0.05,VWS V14.01,2013-09-04 23:52:00,
2013-09-04 19:57:00,79.4,76.2,30.02,WSW,243,0.0,1.0,90,0.05,,---,0.05,VWS V14.01,2013-09-04 23:57:00,
2013-09-04 20:00:00,79.4,76.2,30.02,WSW,243,0.0,1.0,90,0.05,,---,0.05,VWS V14.01,2013-09-05 00:00:00,
2013-09-04 20:02:00,79.3,76.1,30.02,WSW,243,0.0,1.0,90,0.00,,---,0.05,VWS V14.01,2013-09-05 00:02:00,
2013-09-04 20:07:00,79.2,76.0,30.02,WSW,243,0.0,1.0,90,0.00,,---,0.05,VWS V14.01,2013-09-05 00:07:00,
2013-09-04 20:12:00,79.1,75.9,30.02,WSW,243,0.0,1.0,90,0.00,,---,0.05,VWS V14.01,2013-09-05 00:12:00,
2013-09-04 20:17:00,79.0,76.2,30.02,WSW,243,0.0,1.0,91,0.00,,---,0.05,VWS V14.01,2013-09-05 00:17:00,
2013-09-04 20:23:00,78.9,76.1,30.03,WSW,243,0.0,1.0,91,0.00,,---,0.05,VWS V14.01,2013-09-05 00:23:00,
2013-09-04 20:28:00,78.9,76.1,30.03,WSW,243,0.0,1.0,91,0.00,,---,0.05,VWS V14.01,2013-09-05 00:28:00,
2013-09-04 20:30:00,78.8,75.9,30.03,WSW,243,0.0,1.0,91,0.00,,---,0.05,VWS V14.01,2013-09-05 00:30:00,
2013-09-04 20:33:00,78.8,75.9,30.03,WSW,243,0.0,0.0,91,0.00,,---,0.05,VWS V14.01,2013-09-05 00:33:00,
2013-09-04 20:38:00,78.7,75.9,30.03,WSW,243,0.0,0.0,91,0.00,,---,0.05,VWS V14.01,2013-09-05 00:38:00,
2013-09-04 20:43:00,78.6,75.8,30.03,WSW,243,0.0,0.0,91,0.00,,---,0.05,VWS V14.01,2013-09-05 00:43:00,
2013-09-04 20:48:00,78.5,75.7,30.03,WSW,243,0.0,0.0,91,0.00,,---,0.05,VWS V14.01,2013-09-05 00:48:00,
2013-09-04 20:53:00,78.4,75.6,30.03,WSW,243,0.0,1.0,91,0.00,,---,0.05,VWS V14.01,2013-09-05 00:53:00,
2013-09-04 20:58:00,78.3,75.5,30.03,WSW,243,0.0,1.0,91,0.00,,---,0.05,VWS V14.01,2013-09-05 00:58:00,
2013-09-04 21:00:00,78.3,75.5,30.03,WSW,243,0.0,1.0,91,0.00,,---,0.05,VWS V14.01,2013-09-05 01:00:00,
2013-09-04 21:03:00,78.2,75.4,30.03,WSW,243,0.0,0.0,91,0.00,,---,0.05,VWS V14.01,2013-09-05 01:03:00,
2013-09-04 21:08:00,78.0,75.2,30.04,WSW,243,0.0,1.0,91,0.00,,---,0.05,VWS V14.01,2013-09-05 01:08:00,
2013-09-04 21:13:00,77.9,75.1,30.04,WSW,243,0.0,1.0,91,0.00,,---,0.05,VWS V14.01,2013-09-05 01:13:00,
2013-09-04 21:18:00,77.8,75.0,30.04,WSW,243,0.0,1.0,91,0.00,,---,0.05,VWS V14.01,2013-09-05 01:18:00,
2013-09-04 21:23:00,77.8,75.0,30.04,WSW,243,0.0,1.0,91,0.00,,---,0.05,VWS V14.01,2013-09-05 01:23:00,
2013-09-04 21:28:00,77.7,75.2,30.04,WSW,243,0.0,1.0,92,0.00,,---,0.05,VWS V14.01,2013-09-05 01:28:00,
2013-09-04 21:30:00,77.7,74.9,30.04,WSW,243,0.0,1.0,91,0.00,,---,0.05,VWS V14.01,2013-09-05 01:30:00,
2013-09-04 21:33:00,77.6,74.8,30.05,WSW,243,0.0,1.0,91,0.00,,---,0.05,VWS V14.01,2013-09-05 01:33:00,
2013-09-04 21:38:00,77.5,75.0,30.05,WSW,243,0.0,1.0,92,0.00,,---,0.05,VWS V14.01,2013-09-05 01:38:00,
2013-09-04 21:43:00,77.5,75.0,30.05,WSW,243,2.0,3.0,92,0.00,,---,0.05,VWS V14.01,2013-09-05 01:43:00,
2013-09-04 21:48:00,77.4,74.9,30.05,WSW,243,0.0,3.0,92,0.00,,---,0.05,VWS V14.01,2013-09-05 01:48:00,
2013-09-04 21:53:00,77.3,74.8,30.05,WSW,243,0.0,3.0,92,0.00,,---,0.05,VWS V14.01,2013-09-05 01:53:00,
2013-09-04 21:58:00,77.3,74.8,30.06,WSW,243,0.0,3.0,92,0.00,,---,0.05,VWS V14.01,2013-09-05 01:58:00,
2013-09-04 22:00:00,77.3,74.8,30.06,WSW,243,0.0,3.0,92,0.00,,---,0.05,VWS V14.01,2013-09-05 02:00:00,
2013-09-04 22:03:00,77.3,74.8,30.06,WSW,243,0.0,0.0,92,0.00,,---,0.05,VWS V14.01,2013-09-05 02:03:00,
2013-09-04 22:08:00,77.2,74.7,30.06,WSW,243,0.0,0.0,92,0.00,,---,0.05,VWS V14.01,2013-09-05 02:08:00,
2013-09-04 22:13:00,77.3,74.8,30.06,WSW,243,0.0,0.0,92,0.00,,---,0.05,VWS V14.01,2013-09-05 02:13:00,
2013-09-04 22:18:00,77.2,74.7,30.06,WSW,243,0.0,0.0,92,0.00,,---,0.05,VWS V14.01,2013-09-05 02:18:00,
2013-09-04 22:23:00,77.2,74.7,30.06,WSW,243,0.0,1.0,92,0.00,,---,0.05,VWS V14.01,2013-09-05 02:23:00,
2013-09-04 22:28:00,77.2,74.7,30.06,WSW,243,0.0,1.0,92,0.00,,---,0.05,VWS V14.01,2013-09-05 02:28:00,
2013-09-04 22:30:00,77.2,74.7,30.06,WSW,243,0.0,1.0,92,0.00,,---,0.05,VWS V14.01,2013-09-05 02:30:00,
2013-09-04 22:33:00,77.2,74.7,30.06,WSW,243,0.0,0.0,92,0.00,,---,0.05,VWS V14.01,2013-09-05 02:33:00,
2013-09-04 22:38:00,77.2,74.7,30.06,WSW,243,0.0,1.0,92,0.00,,---,0.05,VWS V14.01,2013-09-05 02:38:00,
2013-09-04 22:43:00,77.2,74.7,30.06,WSW,243,0.0,1.0,92,0.00,,---,0.05,VWS V14.01,2013-09-05 02:43:00,
2013-09-04 22:48:00,77.2,74.7,30.06,WSW,243,0.0,1.0,92,0.00,,---,0.05,VWS V14.01,2013-09-05 02:48:00,
2013-09-04 22:53:00,77.1,74.6,30.06,WSW,243,0.0,1.0,92,0.00,,---,0.05,VWS V14.01,2013-09-05 02:53:00,
2013-09-04 22:58:00,77.1,74.6,30.07,WSW,243,0.0,1.0,92,0.00,,---,0.05,VWS V14.01,2013-09-05 02:58:00,
2013-09-04 23:00:00,77.1,74.6,30.07,WSW,243,0.0,1.0,92,0.00,,---,0.05,VWS V14.01,2013-09-05 03:00:00,
2013-09-04 23:03:00,77.0,74.5,30.06,WSW,243,0.0,0.0,92,0.00,,---,0.05,VWS V14.01,2013-09-05 03:03:00,
2013-09-04 23:08:00,76.9,74.4,30.07,WSW,243,0.0,0.0,92,0.00,,---,0.05,VWS V14.01,2013-09-05 03:08:00,
2013-09-04 23:13:00,76.9,74.4,30.07,WSW,243,0.0,1.0,92,0.00,,---,0.05,VWS V14.01,2013-09-05 03:13:00,
2013-09-04 23:18:00,76.9,74.4,30.06,WSW,243,0.0,1.0,92,0.00,,---,0.05,VWS V14.01,2013-09-05 03:18:00,
2013-09-04 23:23:00,76.8,74.3,30.07,WSW,243,0.0,1.0,92,0.00,,---,0.05,VWS V14.01,2013-09-05 03:23:00,
2013-09-04 23:28:00,76.8,74.3,30.06,WSW,243,0.0,1.0,92,0.00,,---,0.05,VWS V14.01,2013-09-05 03:28:00,
2013-09-04 23:30:00,76.8,74.3,30.06,WSW,243,0.0,1.0,92,0.00,,---,0.05,VWS V14.01,2013-09-05 03:30:00,
2013-09-04 23:33:00,76.7,74.5,30.06,WSW,243,0.0,0.0,93,0.00,,---,0.05,VWS V14.01,2013-09-05 03:33:00,
2013-09-04 23:39:00,76.7,74.5,30.07,WSW,243,0.0,0.0,93,0.00,,---,0.05,VWS V14.01,2013-09-05 03:39:00,
2013-09-04 23:44:00,76.6,74.4,30.07,WSW,243,0.0,1.0,93,0.00,,---,0.05,VWS V14.01,2013-09-05 03:44:00,
2013-09-04 23:49:00,76.6,74.4,30.07,WSW,243,0.0,1.0,93,0.00,,---,0.05,VWS V14.01,2013-09-05 03:49:00,
2013-09-04 23:54:00,76.6,74.4,30.07,WSW,243,0.0,1.0,93,0.00,,---,0.05,VWS V14.01,2013-09-05 03:54:00,
2013-09-04 23:59:00,76.6,74.4,30.07,WSW,243,0.0,1.0,93,0.00,,---,0.05,VWS V14.01,2013-09-05 03:59:00,